Cowlington, Oklahoma
Current Conditions -  °F | °C
As of 3:35 AM on Monday 22 Dec 2014 (Local Time) from KGZL Reporting Station
Overcast Overcast  
Wind Chill: 42°   Ceiling: 1700
Heat Index: 46°   Visibility: 7mi
Dew Point: 45°   Wind: 9mph
Humidity: 93%   Direction: 110°ESE
Pressure: 29.65"   Gusts: NA
Location:  35.2597°N, 94.8795°W
Report Text: KGZL 220935Z AUTO 11008KT 7SM OVC017 08/07 A2965 RMK AO2
Loading
Personal Weather Stations






























Interactive Weather Map New forecast layout! Learn more

10-Day Weather Forecast

Advertisements
Track Severe Weather on mobile